Avalon Airport

Airport
ICAO code: 
YMAV
IATA Code: 
AVV
Summary
ICAO Region: 
APAC
Territory: 
Location: 
, Victoria
Serving: 
Avalon
Elevation: 
35 ft
Coordinates: 
Aerial View: 
38° 2' 21.984" S, 144° 28' 9.984" E
Metar
Observation
YMAV 241700Z AUTO 22007KT 9999 // SCT006 19/18 Q1007
Station
Avalon, Avalon Airport
Date/Time
2022-01-24 17:00:00
Wind direction
220°
Wind speed
07 kts
Lowest cloud amount
scattered clouds
Temperature
19°C
Dew point
18°C
Humidity
93%
QNH
1007 hPa
Weather condition
n/a

Runways

Designator Length Width Surface Rops
18/36 3048 45 ASP Yes/Yes
Airport map: 
Aerial View: 

SKYbrary Partners:

Safety knowledge contributed by: